Virginia City Highlands, Nevada
Current Conditions -  °F | °C
As of 12:55 PM on Friday 19 Dec 2014 (Local Time) from KRNO Reporting Station
Overcast Overcast  
Wind Chill: 42°   Ceiling: 3600
Heat Index: 45°   Visibility: 10mi
Dew Point: 37°   Wind: 6mph
Humidity: 74%   Direction: NA
Pressure: 30.12"   Gusts: NA
Location:  39.3892°N, 119.693°W
Report Text: KRNO 192055Z VRB05KT 10SM SCT025 BKN036 OVC055 07/03 A3012 RMK AO2 RAE54 SLP197 P0000 60000 T00720028 53005
Loading
Personal Weather Stations






























Interactive Weather Map New forecast layout! Learn more

10-Day Weather Forecast

Advertisements
Track Severe Weather on mobile